createdAt,value
2017-07-12T00:00:00.219Z,48.42
2017-07-12T00:01:00.567Z,48.61
2017-07-12T00:02:00.716Z,49.1
2017-07-12T00:03:00.617Z,48.61
2017-07-12T00:04:00.648Z,48.61
2017-07-12T00:05:00.348Z,48.61
2017-07-12T00:06:00.823Z,48.71
2017-07-12T00:07:00.723Z,49.58
2017-07-12T00:08:00.871Z,49.48
2017-07-12T00:09:00.775Z,49
2017-07-12T00:10:00.807Z,49.37
2017-07-12T00:11:01.054Z,48.88
2017-07-12T00:12:00.850Z,48.88
2017-07-12T00:13:00.873Z,49.07
2017-07-12T00:14:01.054Z,48.88
2017-07-12T00:15:00.600Z,49.07
2017-07-12T00:16:00.998Z,49.27
2017-07-12T00:17:00.975Z,49.27
2017-07-12T00:18:00.679Z,49.65
2017-07-12T00:19:01.024Z,49.37
2017-07-12T00:20:01.147Z,49.37
2017-07-12T00:21:00.753Z,49.65
2017-07-12T00:22:01.115Z,49.55
2017-07-12T00:23:00.798Z,49.55
2017-07-12T00:24:01.147Z,49.46
2017-07-12T00:25:00.984Z,49.65
2017-07-12T00:26:01.202Z,49.46
2017-07-12T00:27:01.234Z,49.55
2017-07-12T00:28:01.260Z,49.46
2017-07-12T00:29:01.273Z,49.65
2017-07-12T00:30:01.306Z,49.55
2017-07-12T00:31:01.323Z,49.55
2017-07-12T00:32:01.367Z,49.63
2017-07-12T00:33:01.374Z,49.55
2017-07-12T00:34:01.402Z,49.91
2017-07-12T00:35:01.098Z,49.82
2017-07-12T00:36:01.563Z,49.75
2017-07-12T00:37:01.474Z,49.63
2017-07-12T00:38:01.178Z,49.73
2017-07-12T00:39:01.532Z,50.3
2017-07-12T00:40:01.549Z,50.3
2017-07-12T00:41:01.576Z,49.91
2017-07-12T00:42:01.277Z,50.11
2017-07-12T00:43:01.631Z,50.01
2017-07-12T00:44:01.652Z,49.82
2017-07-12T00:45:01.675Z,49.91
2017-07-12T00:46:01.373Z,50.11
2017-07-12T00:47:01.722Z,50.01
2017-07-12T00:48:01.751Z,50.01
2017-07-12T00:49:01.773Z,50.01
2017-07-12T00:50:01.795Z,50.3
2017-07-12T00:51:01.823Z,50.21
2017-07-12T00:52:01.527Z,50.21
2017-07-12T00:53:01.545Z,50.3
2017-07-12T00:54:01.573Z,50.69
2017-07-12T00:55:01.930Z,50.11
2017-07-12T00:56:01.948Z,50.21
2017-07-12T00:57:01.969Z,50.69
2017-07-12T00:58:02.000Z,50.49
2017-07-12T00:59:01.697Z,50.78
2017-07-12T01:00:01.719Z,50.78
2017-07-12T01:01:02.073Z,50.21
2017-07-12T01:02:01.769Z,50.47
2017-07-12T01:03:01.803Z,51.07
2017-07-12T01:04:02.140Z,50.4
2017-07-12T01:05:02.172Z,51.07
2017-07-12T01:06:02.195Z,50.47
2017-07-12T01:07:02.214Z,50.66
2017-07-12T01:08:02.239Z,51.07
2017-07-12T01:09:01.943Z,50.85
2017-07-12T01:10:02.289Z,50.76
2017-07-12T01:11:02.310Z,50.76
2017-07-12T01:12:02.016Z,50.95
2017-07-12T01:13:02.397Z,50.76
2017-07-12T01:14:02.389Z,50.85
2017-07-12T01:15:02.411Z,50.76
2017-07-12T01:16:02.110Z,51.14
2017-07-12T01:17:02.466Z,50.85
2017-07-12T01:18:02.485Z,50.76
2017-07-12T01:19:02.307Z,50.95
2017-07-12T01:20:02.534Z,50.95
2017-07-12T01:21:02.556Z,51.34
2017-07-12T01:22:02.258Z,51.24
2017-07-12T01:23:02.606Z,51.24
2017-07-12T01:24:02.634Z,51.14
2017-07-12T01:25:02.331Z,51.05
2017-07-12T01:26:02.683Z,51.14
2017-07-12T01:27:02.380Z,51.34
2017-07-12T01:28:02.405Z,51.14
2017-07-12T01:29:02.427Z,51.05
2017-07-12T01:30:02.779Z,51.34
2017-07-12T01:31:02.566Z,51.53
2017-07-12T01:32:02.519Z,51.05
2017-07-12T01:33:02.848Z,50.93
2017-07-12T01:34:02.943Z,51.24
2017-07-12T01:35:02.983Z,51.12
2017-07-12T01:36:02.641Z,51.31
2017-07-12T01:37:02.666Z,51.53
2017-07-12T01:38:02.974Z,51.41
2017-07-12T01:39:02.674Z,51.5
2017-07-12T01:40:03.027Z,51.41
2017-07-12T01:41:02.720Z,51.89
2017-07-12T01:42:02.875Z,51.79
2017-07-12T01:43:03.252Z,51.79
2017-07-12T01:44:03.133Z,52.08
2017-07-12T01:45:02.816Z,51.79
2017-07-12T01:46:02.864Z,51.79
2017-07-12T01:47:03.188Z,51.89
2017-07-12T01:48:03.257Z,51.6
2017-07-12T01:49:03.236Z,51.79
2017-07-12T01:50:02.943Z,51.98
2017-07-12T01:51:02.959Z,51.98
2017-07-12T01:52:03.321Z,51.89
2017-07-12T01:53:03.008Z,52.18
2017-07-12T01:54:03.357Z,52.27
2017-07-12T01:55:03.057Z,52.37
2017-07-12T01:56:03.420Z,52.37
2017-07-12T01:57:03.427Z,52.27
2017-07-12T01:58:03.130Z,52.37
2017-07-12T01:59:03.478Z,52.37
2017-07-12T02:00:03.506Z,52.27
2017-07-12T02:01:03.530Z,52.37
2017-07-12T02:02:03.565Z,52.47
2017-07-12T02:03:03.578Z,52.27
2017-07-12T02:04:03.276Z,52.56
2017-07-12T02:05:03.622Z,52.66
2017-07-12T02:06:03.350Z,52.56
2017-07-12T02:07:03.346Z,52.47
2017-07-12T02:08:03.714Z,52.47
2017-07-12T02:09:03.395Z,52.85
2017-07-12T02:10:03.490Z,52.63
2017-07-12T02:11:03.442Z,52.75
2017-07-12T02:12:03.796Z,52.75
2017-07-12T02:13:03.821Z,52.56
2017-07-12T02:14:03.857Z,52.85
2017-07-12T02:15:03.862Z,52.66
2017-07-12T02:16:03.895Z,52.66
2017-07-12T02:17:03.909Z,53.05
2017-07-12T02:18:03.937Z,52.83
2017-07-12T02:19:03.636Z,52.83
2017-07-12T02:20:03.659Z,52.85
2017-07-12T02:21:03.684Z,52.73
2017-07-12T02:22:03.708Z,52.85
2017-07-12T02:23:03.730Z,52.83
2017-07-12T02:24:04.285Z,52.73
2017-07-12T02:25:03.777Z,52.83
2017-07-12T02:26:04.125Z,52.92
2017-07-12T02:27:04.275Z,53.02
2017-07-12T02:28:03.850Z,52.92
2017-07-12T02:29:04.197Z,53.11
2017-07-12T02:30:03.897Z,53.02
2017-07-12T02:31:04.253Z,53.11
2017-07-12T02:32:04.266Z,53.02
2017-07-12T02:33:03.971Z,53.21
2017-07-12T02:34:04.315Z,53.21
2017-07-12T02:35:04.347Z,53.21
2017-07-12T02:36:04.040Z,53.21
2017-07-12T02:37:04.064Z,53.5
2017-07-12T02:38:04.089Z,53.31
2017-07-12T02:39:04.435Z,53.31
2017-07-12T02:40:04.457Z,53.31
2017-07-12T02:41:04.486Z,53.31
2017-07-12T02:42:04.185Z,53.4
2017-07-12T02:43:04.530Z,53.21
2017-07-12T02:44:04.560Z,53.59
2017-07-12T02:45:04.577Z,53.78
2017-07-12T02:46:04.614Z,53.5
2017-07-12T02:47:04.302Z,53.59
2017-07-12T02:48:04.648Z,53.4
2017-07-12T02:49:04.349Z,53.69
2017-07-12T02:50:04.373Z,53.5
2017-07-12T02:51:04.721Z,52.92
2017-07-12T02:52:04.426Z,53.31
2017-07-12T02:53:04.445Z,53.5
2017-07-12T02:54:04.791Z,53.31
2017-07-12T02:55:04.493Z,53.69
2017-07-12T02:56:04.955Z,53.78
2017-07-12T02:57:04.661Z,53.69
2017-07-12T02:58:04.886Z,53.69
2017-07-12T02:59:04.587Z,53.4
2017-07-12T03:00:04.611Z,53.11
2017-07-12T03:01:04.961Z,53.98
2017-07-12T03:02:04.660Z,53.88
2017-07-12T03:03:04.680Z,53.98
2017-07-12T03:04:04.707Z,53.78
2017-07-12T03:05:05.175Z,53.98
2017-07-12T03:06:04.752Z,53.86
2017-07-12T03:07:04.921Z,53.86
2017-07-12T03:08:04.798Z,54.17
2017-07-12T03:09:04.830Z,54.46
2017-07-12T03:10:05.190Z,54.36
2017-07-12T03:11:05.193Z,54.27
2017-07-12T03:12:05.223Z,54.36
2017-07-12T03:13:04.917Z,54.85
2017-07-12T03:14:05.494Z,54.08
2017-07-12T03:15:05.291Z,54.91
2017-07-12T03:16:04.989Z,54.82
2017-07-12T03:17:05.010Z,54.65
2017-07-12T03:18:05.035Z,54.72
2017-07-12T03:19:05.389Z,53.69
2017-07-12T03:20:05.402Z,54.63
2017-07-12T03:21:05.225Z,53.69
2017-07-12T03:22:05.127Z,54.56
2017-07-12T03:23:05.478Z,54.53
2017-07-12T03:24:05.500Z,53.86
2017-07-12T03:25:05.200Z,54.43
2017-07-12T03:26:05.544Z,54.17
2017-07-12T03:27:05.573Z,54.34
2017-07-12T03:28:05.599Z,55.04
2017-07-12T03:29:05.292Z,54.08
2017-07-12T03:30:05.638Z,55.01
2017-07-12T03:31:05.732Z,54.91
2017-07-12T03:32:05.685Z,55.01
2017-07-12T03:33:05.708Z,55.11
2017-07-12T03:34:05.734Z,54.91
2017-07-12T03:35:05.850Z,54.08
2017-07-12T03:36:05.461Z,54.14
2017-07-12T03:37:05.621Z,54.82
2017-07-12T03:38:05.504Z,54.53
2017-07-12T03:39:05.675Z,54.63
2017-07-12T03:40:05.553Z,54.34
2017-07-12T03:41:05.897Z,54.75
2017-07-12T03:42:05.601Z,55.01
2017-07-12T03:43:05.942Z,54.43
2017-07-12T03:44:05.971Z,54.91
2017-07-12T03:45:05.667Z,54.43
2017-07-12T03:46:05.696Z,54.24
2017-07-12T03:47:06.039Z,55.11
2017-07-12T03:48:06.062Z,55.11
2017-07-12T03:49:05.764Z,55.11
2017-07-12T03:50:05.788Z,55.3
2017-07-12T03:51:06.263Z,55.3
2017-07-12T03:52:06.159Z,54.82
2017-07-12T03:53:05.856Z,55.3
2017-07-12T03:54:06.205Z,55.2
2017-07-12T03:55:05.903Z,55.2
2017-07-12T03:56:05.927Z,54.91
2017-07-12T03:57:06.397Z,54.63
2017-07-12T03:58:06.298Z,54.82
2017-07-12T03:59:06.093Z,55.2
2017-07-12T04:00:06.347Z,54.91
2017-07-12T04:01:06.045Z,55.4
2017-07-12T04:02:06.065Z,55.4
2017-07-12T04:03:06.420Z,55.49
2017-07-12T04:04:06.115Z,55.49
2017-07-12T04:05:06.463Z,55.49
2017-07-12T04:06:06.488Z,55.4
2017-07-12T04:07:06.507Z,55.68
2017-07-12T04:08:06.654Z,55.59
2017-07-12T04:09:06.551Z,55.98
2017-07-12T04:10:06.576Z,55.3
2017-07-12T04:11:06.721Z,55.81
2017-07-12T04:12:06.300Z,55.3
2017-07-12T04:13:06.647Z,55.3
2017-07-12T04:14:06.347Z,55.98
2017-07-12T04:15:06.370Z,55.78
2017-07-12T04:16:06.722Z,55.2
2017-07-12T04:17:06.744Z,55.59
2017-07-12T04:18:06.438Z,55.59
2017-07-12T04:19:06.786Z,55.62
2017-07-12T04:20:06.813Z,55.59
2017-07-12T04:21:06.831Z,55.13
2017-07-12T04:22:06.531Z,55.71
2017-07-12T04:23:07.006Z,55.62
2017-07-12T04:24:06.901Z,55.78
2017-07-12T04:25:06.602Z,55.3
2017-07-12T04:26:06.954Z,55.98
2017-07-12T04:27:06.976Z,55.71
2017-07-12T04:28:07.003Z,55.81
2017-07-12T04:29:06.696Z,55.68
2017-07-12T04:30:07.040Z,55.78
2017-07-12T04:31:07.067Z,55.81
2017-07-12T04:32:07.093Z,55.78
2017-07-12T04:33:07.111Z,55.59
2017-07-12T04:34:06.815Z,56.16
2017-07-12T04:35:06.836Z,55.62
2017-07-12T04:36:06.858Z,55.98
2017-07-12T04:37:07.203Z,55.62
2017-07-12T04:38:07.231Z,56.07
2017-07-12T04:39:07.252Z,56.07
2017-07-12T04:40:06.953Z,55.98
2017-07-12T04:41:07.303Z,56.29
2017-07-12T04:42:07.000Z,56.2
2017-07-12T04:43:07.347Z,55.71
2017-07-12T04:44:07.373Z,55.71
2017-07-12T04:45:07.069Z,55.59
2017-07-12T04:46:07.091Z,56.1
2017-07-12T04:47:07.115Z,55.81
2017-07-12T04:48:07.141Z,56.2
2017-07-12T04:49:07.501Z,56.2
2017-07-12T04:50:07.184Z,56
2017-07-12T04:51:07.533Z,56.29
2017-07-12T04:52:07.236Z,56.1
2017-07-12T04:53:07.586Z,55.81
2017-07-12T04:54:07.602Z,55.9
2017-07-12T04:55:07.630Z,55.62
2017-07-12T04:56:07.647Z,55.23
2017-07-12T04:57:07.350Z,55.81
2017-07-12T04:58:07.703Z,55.9
2017-07-12T04:59:07.718Z,55.9
2017-07-12T05:00:07.746Z,55.33
2017-07-12T05:01:07.443Z,55.52
2017-07-12T05:02:07.466Z,55.62
2017-07-12T05:03:07.490Z,55.23
2017-07-12T05:04:07.516Z,55.52
2017-07-12T05:05:07.536Z,55.33
2017-07-12T05:06:07.890Z,55.62
2017-07-12T05:07:07.909Z,55.43
2017-07-12T05:08:07.930Z,55.23
2017-07-12T05:09:07.955Z,55.43
2017-07-12T05:10:07.659Z,55.13
2017-07-12T05:11:08.004Z,55.23
2017-07-12T05:12:07.701Z,55.13
2017-07-12T05:13:07.723Z,54.75
2017-07-12T05:14:08.132Z,55.04
2017-07-12T05:15:08.095Z,55.13
2017-07-12T05:16:08.115Z,55.33
2017-07-12T05:17:08.138Z,55.16
2017-07-12T05:18:08.170Z,55.13
2017-07-12T05:19:08.192Z,55.16
2017-07-12T05:20:08.216Z,54.97
2017-07-12T05:21:08.237Z,55.16
2017-07-12T05:22:08.258Z,54.49
2017-07-12T05:23:07.964Z,55.16
2017-07-12T05:24:08.305Z,54.58
2017-07-12T05:25:08.337Z,54.58
2017-07-12T05:26:08.354Z,54.68
2017-07-12T05:27:08.375Z,54.87
2017-07-12T05:28:08.081Z,54.49
2017-07-12T05:29:08.430Z,54.68
2017-07-12T05:30:08.456Z,54.87
2017-07-12T05:31:08.470Z,55
2017-07-12T05:32:08.571Z,55
2017-07-12T05:33:08.523Z,55
2017-07-12T05:34:08.221Z,54.49
2017-07-12T05:35:08.566Z,53.94
2017-07-12T05:36:08.592Z,54.71
2017-07-12T05:37:08.290Z,54.03
2017-07-12T05:38:08.314Z,54.42
2017-07-12T05:39:08.338Z,55
2017-07-12T05:40:08.688Z,54.9
2017-07-12T05:41:08.707Z,54.32
2017-07-12T05:42:08.411Z,54.22
2017-07-12T05:43:08.431Z,54.42
2017-07-12T05:44:08.776Z,54.03
2017-07-12T05:45:08.478Z,54.52
2017-07-12T05:46:08.831Z,54.32
2017-07-12T05:47:08.851Z,54.03
2017-07-12T05:48:09.000Z,53.74
2017-07-12T05:49:08.683Z,54.13
2017-07-12T05:50:08.921Z,53.27
2017-07-12T05:51:08.621Z,53.55
2017-07-12T05:52:08.973Z,53.65
2017-07-12T05:53:08.669Z,53.77
2017-07-12T05:54:08.694Z,54.03
2017-07-12T05:55:09.040Z,53.65
2017-07-12T05:56:09.067Z,53.84
2017-07-12T05:57:09.093Z,53.87
2017-07-12T05:58:09.118Z,53.19
2017-07-12T05:59:08.811Z,53.96
2017-07-12T06:00:09.162Z,53.48
2017-07-12T06:01:09.189Z,53.39
2017-07-12T06:02:08.886Z,53.67
2017-07-12T06:03:08.920Z,53.58
2017-07-12T06:04:09.258Z,53.58
2017-07-12T06:05:08.965Z,53.58
2017-07-12T06:06:09.303Z,53.58
2017-07-12T06:07:09.003Z,53.58
2017-07-12T06:08:09.353Z,53.09
2017-07-12T06:09:09.374Z,53
2017-07-12T06:10:09.399Z,53.87
2017-07-12T06:11:09.422Z,53.58
2017-07-12T06:12:09.125Z,53.19
2017-07-12T06:13:09.149Z,53.29
2017-07-12T06:14:09.494Z,53.39
2017-07-12T06:15:09.199Z,53.39
2017-07-12T06:16:09.222Z,53.22
2017-07-12T06:17:09.568Z,53.22
2017-07-12T06:18:09.635Z,53.31
2017-07-12T06:19:09.671Z,53.22
2017-07-12T06:20:09.316Z,52.83
2017-07-12T06:21:09.343Z,52.93
2017-07-12T06:22:09.365Z,53.03
2017-07-12T06:23:09.389Z,53.03
2017-07-12T06:24:09.733Z,52.64
2017-07-12T06:25:09.761Z,52.73
2017-07-12T06:26:09.784Z,52.93
2017-07-12T06:27:09.968Z,52.64
2017-07-12T06:28:09.832Z,52.64
2017-07-12T06:29:09.857Z,52.73
2017-07-12T06:30:09.883Z,52.64
2017-07-12T06:31:09.906Z,52.55
2017-07-12T06:32:09.932Z,52.37
2017-07-12T06:33:09.956Z,52.37
2017-07-12T06:34:09.654Z,52.47
2017-07-12T06:35:10.023Z,52.47
2017-07-12T06:36:10.038Z,52.37
2017-07-12T06:37:10.060Z,52.28
2017-07-12T06:38:10.077Z,51.99
2017-07-12T06:39:09.775Z,52.19
2017-07-12T06:40:09.801Z,52.19
2017-07-12T06:41:09.824Z,51.51
2017-07-12T06:42:09.852Z,52.09
2017-07-12T06:43:10.211Z,51.8
2017-07-12T06:44:09.898Z,52.19
2017-07-12T06:45:09.969Z,52.01
2017-07-12T06:46:09.949Z,52.28
2017-07-12T06:47:10.297Z,52.09
2017-07-12T06:48:10.323Z,51.8
2017-07-12T06:49:10.021Z,51.7
2017-07-12T06:50:10.043Z,51.89
2017-07-12T06:51:10.392Z,51.63
2017-07-12T06:52:10.420Z,51.73
2017-07-12T06:53:10.440Z,51.73
2017-07-12T06:54:10.468Z,51.15
2017-07-12T06:55:10.496Z,51.34
2017-07-12T06:56:10.194Z,51.25
2017-07-12T06:57:10.217Z,50.86
2017-07-12T06:58:10.242Z,50.76
2017-07-12T06:59:10.597Z,50.86
2017-07-12T07:00:10.295Z,50.86
2017-07-12T07:01:10.646Z,51.05
2017-07-12T07:02:10.673Z,51.05
2017-07-12T07:03:10.695Z,50.86
2017-07-12T07:04:10.719Z,50.96
2017-07-12T07:05:10.737Z,50.96
2017-07-12T07:06:10.442Z,50.86
2017-07-12T07:07:10.789Z,51.15
2017-07-12T07:08:10.488Z,50.76
2017-07-12T07:09:10.513Z,50.69
2017-07-12T07:10:10.542Z,50.69
2017-07-12T07:11:10.891Z,50.5
2017-07-12T07:12:10.911Z,50.4
2017-07-12T07:13:10.939Z,50.31
2017-07-12T07:14:10.640Z,50.69
2017-07-12T07:15:10.983Z,50.4
2017-07-12T07:16:11.013Z,50.21
2017-07-12T07:17:11.040Z,50.4
2017-07-12T07:18:11.061Z,49.92
2017-07-12T07:19:10.759Z,50.11
2017-07-12T07:20:11.112Z,49.82
2017-07-12T07:21:11.134Z,49.92
2017-07-12T07:22:10.838Z,49.65
2017-07-12T07:23:10.862Z,49.85
2017-07-12T07:24:11.213Z,49.85
2017-07-12T07:25:10.987Z,50.33
2017-07-12T07:26:11.265Z,49.55
2017-07-12T07:27:10.965Z,49.75
2017-07-12T07:28:11.312Z,49.65
2017-07-12T07:29:11.350Z,49.46
2017-07-12T07:30:11.361Z,49.65
2017-07-12T07:31:11.062Z,49.55
2017-07-12T07:32:11.411Z,48.97
2017-07-12T07:33:11.438Z,49.55
2017-07-12T07:34:11.139Z,48.61
2017-07-12T07:35:11.578Z,48.9
2017-07-12T07:36:11.675Z,48.69
2017-07-12T07:37:11.413Z,48.49
2017-07-12T07:38:11.741Z,48.23
2017-07-12T07:39:11.713Z,48.9
2017-07-12T07:40:11.700Z,48.81
2017-07-12T07:41:11.836Z,48.32
2017-07-12T07:42:11.670Z,48.52
2017-07-12T07:43:11.368Z,48.9
2017-07-12T07:44:11.717Z,48.42
2017-07-12T07:45:11.737Z,49
2017-07-12T07:46:11.765Z,48.25
2017-07-12T07:47:11.469Z,48.52
2017-07-12T07:48:11.817Z,48.06
2017-07-12T07:49:11.517Z,47.77
2017-07-12T07:50:11.543Z,47.58
2017-07-12T07:51:11.892Z,47.67
2017-07-12T07:52:11.920Z,47.38
2017-07-12T07:53:11.945Z,47.02
2017-07-12T07:54:11.978Z,47.09
2017-07-12T07:55:11.674Z,47.09
2017-07-12T07:56:12.023Z,47.31
2017-07-12T07:57:12.050Z,47.41
2017-07-12T07:58:12.071Z,46.73
2017-07-12T07:59:12.108Z,46.83
2017-07-12T08:00:12.121Z,46.73
2017-07-12T08:01:12.150Z,46.53
2017-07-12T08:02:11.852Z,46.63
2017-07-12T08:03:11.878Z,46.44
2017-07-12T08:04:12.230Z,46.34
2017-07-12T08:05:11.927Z,46.34
2017-07-12T08:06:11.953Z,46.44
2017-07-12T08:07:12.306Z,46.25
2017-07-12T08:08:12.332Z,46.44
2017-07-12T08:09:12.357Z,46.25
2017-07-12T08:10:12.383Z,46.15
2017-07-12T08:11:12.410Z,46.15
2017-07-12T08:12:12.109Z,46.17
2017-07-12T08:13:12.473Z,45.88
2017-07-12T08:14:12.484Z,45.88
2017-07-12T08:15:12.199Z,45.68
2017-07-12T08:16:12.535Z,45.88
2017-07-12T08:17:12.562Z,45.59
2017-07-12T08:18:12.590Z,45.4
2017-07-12T08:19:12.291Z,45.68
2017-07-12T08:20:12.317Z,45.49
2017-07-12T08:21:12.669Z,45.3
2017-07-12T08:22:12.692Z,45.3
2017-07-12T08:23:12.397Z,45.2
2017-07-12T08:24:12.749Z,45.1
2017-07-12T08:25:12.773Z,45.01
2017-07-12T08:26:12.800Z,44.81
2017-07-12T08:27:12.530Z,44.81
2017-07-12T08:28:12.855Z,44.91
2017-07-12T08:29:12.873Z,45.01
2017-07-12T08:30:12.906Z,45.01
2017-07-12T08:31:12.607Z,45.01
2017-07-12T08:32:12.961Z,45.01
2017-07-12T08:33:12.661Z,44.81
2017-07-12T08:34:13.009Z,44.81
2017-07-12T08:35:12.711Z,45.01
2017-07-12T08:36:12.737Z,45.01
2017-07-12T08:37:12.768Z,45.01
2017-07-12T08:38:13.111Z,44.81
2017-07-12T08:39:12.817Z,45.01
2017-07-12T08:40:12.845Z,44.84
2017-07-12T08:41:12.869Z,44.81
2017-07-12T08:42:13.224Z,44.74
2017-07-12T08:43:12.921Z,44.64
2017-07-12T08:44:12.951Z,44.74
2017-07-12T08:45:12.975Z,44.74
2017-07-12T08:46:13.328Z,44.54
2017-07-12T08:47:13.027Z,44.45
2017-07-12T08:48:13.385Z,44.45
2017-07-12T08:49:13.407Z,43.87
2017-07-12T08:50:13.432Z,44.06
2017-07-12T08:51:13.462Z,44.06
2017-07-12T08:52:13.491Z,44.26
2017-07-12T08:53:13.187Z,43.87
2017-07-12T08:54:13.217Z,43.87
2017-07-12T08:55:13.239Z,44.16
2017-07-12T08:56:13.590Z,43.87
2017-07-12T08:57:13.639Z,44.26
2017-07-12T08:58:13.320Z,44.06
2017-07-12T08:59:13.378Z,43.77
2017-07-12T09:00:13.370Z,43.19
2017-07-12T09:01:13.400Z,43.77
2017-07-12T09:02:13.747Z,43.87
2017-07-12T09:03:13.778Z,43.68
2017-07-12T09:04:13.800Z,43.19
2017-07-12T09:05:13.507Z,43.48
2017-07-12T09:06:13.860Z,43.19
2017-07-12T09:07:13.884Z,43.58
2017-07-12T09:08:13.912Z,43.19
2017-07-12T09:09:13.940Z,43.58
2017-07-12T09:10:13.639Z,43.19
2017-07-12T09:11:13.664Z,43
2017-07-12T09:12:14.016Z,43.09
2017-07-12T09:13:13.718Z,43
2017-07-12T09:14:13.743Z,42.9
2017-07-12T09:15:14.104Z,43
2017-07-12T09:16:13.798Z,42.8
2017-07-12T09:17:14.149Z,42.8
2017-07-12T09:18:14.175Z,42.71
2017-07-12T09:19:14.205Z,42.8
2017-07-12T09:20:14.232Z,42.88
2017-07-12T09:21:14.258Z,43
2017-07-12T09:22:13.959Z,43.09
2017-07-12T09:23:13.985Z,42.97
2017-07-12T09:33:14.256Z,43.75
2017-07-12T09:34:14.703Z,43.75
2017-07-12T09:35:14.403Z,43.65
2017-07-12T09:36:14.436Z,43.65
2017-07-12T09:37:14.387Z,43.95
2017-07-12T09:38:14.389Z,43.55
2017-07-12T09:39:14.735Z,43.55
2017-07-12T09:40:14.439Z,43.75
2017-07-12T09:41:14.787Z,43.85
2017-07-12T09:42:14.490Z,43.65
2017-07-12T09:43:14.844Z,43.75
2017-07-12T09:44:14.547Z,43.55
2017-07-12T09:45:14.576Z,44.04
2017-07-12T09:46:14.922Z,44.13
2017-07-12T09:47:14.625Z,44.23
2017-07-12T09:48:14.826Z,43.95
2017-07-12T09:49:15.141Z,44.33
2017-07-12T09:50:14.896Z,43.75
2017-07-12T09:51:15.151Z,44.33
2017-07-12T09:52:15.151Z,44.04
2017-07-12T09:53:15.190Z,44.04
2017-07-12T09:54:15.225Z,43.85
2017-07-12T09:55:15.260Z,44.33
2017-07-12T09:56:15.256Z,44.04
2017-07-12T09:57:14.900Z,43.95
2017-07-12T09:58:14.920Z,43.55
2017-07-12T09:59:15.269Z,43.73
2017-07-12T10:00:14.970Z,43.73
2017-07-12T10:01:15.320Z,43.95
2017-07-12T10:02:15.456Z,43.95
2017-07-12T10:03:15.480Z,44.21
2017-07-12T10:04:15.480Z,44.12
2017-07-12T10:05:15.478Z,44.02
2017-07-12T10:06:15.132Z,44.21
2017-07-12T10:07:15.157Z,44.7
2017-07-12T10:08:15.618Z,44.79
2017-07-12T10:09:15.211Z,45.18
2017-07-12T10:10:15.643Z,45.28
2017-07-12T10:11:15.267Z,45.47
2017-07-12T10:12:15.291Z,45.66
2017-07-12T10:13:15.760Z,45.66
2017-07-12T10:14:15.666Z,45.76
2017-07-12T10:15:15.370Z,45.66
2017-07-12T10:16:15.399Z,45.66
2017-07-12T10:17:15.843Z,45.66
2017-07-12T10:18:15.777Z,45.76
2017-07-12T10:19:15.799Z,45.66
2017-07-12T10:20:15.830Z,45.57
2017-07-12T10:21:15.853Z,45.76
2017-07-12T10:22:15.876Z,45.66
2017-07-12T10:23:15.903Z,45.86
2017-07-12T10:24:15.936Z,45.86
2017-07-12T10:25:15.960Z,46.15
2017-07-12T10:26:15.989Z,46.15
2017-07-12T10:27:16.024Z,45.93
2017-07-12T10:28:16.085Z,46.12
2017-07-12T10:29:16.067Z,46.15
2017-07-12T10:30:16.091Z,46.03
2017-07-12T10:31:16.120Z,46.25
2017-07-12T10:32:15.818Z,46.15
2017-07-12T10:33:16.190Z,46.25
2017-07-12T10:34:16.195Z,46.22
2017-07-12T10:35:15.899Z,46.51
2017-07-12T10:36:16.250Z,46.83
2017-07-12T10:37:16.282Z,47.31
2017-07-12T10:38:16.302Z,47.5
2017-07-12T10:39:16.327Z,47.28
2017-07-12T10:40:16.031Z,48.08
2017-07-12T10:41:16.381Z,48.06
2017-07-12T10:42:16.413Z,48.27
2017-07-12T10:43:16.436Z,48.57
2017-07-12T10:44:16.465Z,48.64
2017-07-12T10:45:16.487Z,48.47
2017-07-12T10:46:16.517Z,48.93
2017-07-12T10:47:16.217Z,48.44
2017-07-12T10:48:16.246Z,48.93
2017-07-12T10:49:16.593Z,48.54
2017-07-12T10:50:16.297Z,48.93
2017-07-12T10:51:16.321Z,48.93
2017-07-12T10:52:16.675Z,48.93
2017-07-12T10:53:16.702Z,49.02
2017-07-12T10:54:16.729Z,49.22
2017-07-12T10:55:16.749Z,49.41
2017-07-12T10:56:16.778Z,49.12
2017-07-12T10:57:16.807Z,49.51
2017-07-12T10:58:16.830Z,49.19
2017-07-12T10:59:16.859Z,49.49
2017-07-12T11:00:16.559Z,49.68
2017-07-12T11:01:16.585Z,49.77
2017-07-12T11:02:16.611Z,50.07
2017-07-12T11:03:16.964Z,49.58
2017-07-12T11:04:16.667Z,50.35
2017-07-12T11:05:17.013Z,49.77
2017-07-12T11:06:17.043Z,50.55
2017-07-12T11:07:17.063Z,50.84
2017-07-12T11:08:17.094Z,50.35
2017-07-12T11:09:17.122Z,50.55
2017-07-12T11:10:17.147Z,51.23
2017-07-12T11:11:17.179Z,50.74
2017-07-12T11:12:16.873Z,50.84
2017-07-12T11:13:17.222Z,50.84
2017-07-12T11:14:17.249Z,50.93
2017-07-12T11:15:17.282Z,51.29
2017-07-12T11:16:16.980Z,51.32
2017-07-12T11:17:17.328Z,51.23
2017-07-12T11:18:17.453Z,51.71
2017-07-12T11:19:17.057Z,51.71
2017-07-12T11:20:17.463Z,51.9
2017-07-12T11:21:17.110Z,51.97
2017-07-12T11:22:17.462Z,52.07
2017-07-12T11:23:17.484Z,52.17
2017-07-12T11:24:17.188Z,52.26
2017-07-12T11:25:17.537Z,52.45
2017-07-12T11:26:17.568Z,52.45
2017-07-12T11:27:17.589Z,52.75
2017-07-12T11:28:17.294Z,52.75
2017-07-12T11:29:17.318Z,52.94
2017-07-12T11:30:17.348Z,52.65
2017-07-12T11:31:17.701Z,52.94
2017-07-12T11:32:17.720Z,53.71
2017-07-12T11:33:17.423Z,54.19
2017-07-12T11:34:17.778Z,54
2017-07-12T11:35:17.570Z,54.19
2017-07-12T11:36:17.503Z,53.52
2017-07-12T11:37:17.528Z,54
2017-07-12T11:38:17.878Z,54.19
2017-07-12T11:39:17.903Z,54.49
2017-07-12T11:40:17.608Z,54.65
2017-07-12T11:41:17.634Z,54.55
2017-07-12T11:42:17.987Z,55.13
2017-07-12T11:43:17.683Z,55.04
2017-07-12T11:44:18.037Z,54.75
2017-07-12T11:45:18.061Z,54.75
2017-07-12T11:46:17.764Z,54.75
2017-07-12T11:47:18.118Z,54.65
2017-07-12T11:48:18.141Z,54.94
2017-07-12T11:49:18.173Z,55.04
2017-07-12T11:50:17.869Z,54.94
2017-07-12T11:51:18.215Z,55.04
2017-07-12T11:52:18.244Z,54.55
2017-07-12T11:53:17.956Z,54.55
2017-07-12T11:54:17.971Z,54.46
2017-07-12T11:55:18.320Z,55.23
2017-07-12T11:56:18.347Z,55.13
2017-07-12T11:57:18.372Z,53.97
2017-07-12T11:58:18.402Z,54.65
2017-07-12T11:59:18.103Z,54.72
2017-07-12T12:00:18.122Z,54.43
2017-07-12T12:01:18.151Z,54.53
2017-07-12T12:02:18.505Z,55.2
2017-07-12T12:03:18.523Z,54.72
2017-07-12T12:04:18.551Z,55.2
2017-07-12T12:05:18.667Z,54.24
2017-07-12T12:06:18.482Z,54.14
2017-07-12T12:07:18.855Z,55.3
2017-07-12T12:08:18.652Z,55.2
2017-07-12T12:09:18.356Z,54.62
2017-07-12T12:10:18.703Z,54.33
2017-07-12T12:11:18.731Z,54.72
2017-07-12T12:12:18.760Z,54.05
2017-07-12T12:13:18.457Z,53.85
2017-07-12T12:14:18.812Z,54.62
2017-07-12T12:15:18.836Z,54.05
2017-07-12T12:16:18.535Z,54.72
2017-07-12T12:17:18.563Z,54.33
2017-07-12T12:18:18.909Z,55.3
2017-07-12T12:19:18.608Z,55.1
2017-07-12T12:20:18.637Z,54.33
2017-07-12T12:21:18.981Z,55.1
2017-07-12T12:22:18.685Z,54.33
2017-07-12T12:23:18.709Z,55.1
2017-07-12T12:24:19.063Z,54.33
2017-07-12T12:25:19.086Z,55.1
2017-07-12T12:26:18.791Z,55.1
2017-07-12T12:27:19.137Z,55.01
2017-07-12T12:28:19.162Z,54.53
2017-07-12T12:29:19.187Z,54.24
2017-07-12T12:30:19.215Z,54.82
2017-07-12T12:31:19.239Z,54.82
2017-07-12T12:32:19.266Z,54.62
2017-07-12T12:33:19.289Z,54.82
2017-07-12T12:34:19.317Z,54.82
2017-07-12T12:35:19.340Z,54.91
2017-07-12T12:36:19.048Z,54.62
2017-07-12T12:37:19.390Z,54.53
2017-07-12T12:38:19.267Z,55.2
2017-07-12T12:39:19.445Z,55.3
2017-07-12T12:40:19.466Z,55.2
2017-07-12T12:41:19.493Z,54.62
2017-07-12T12:42:19.529Z,55.3
2017-07-12T12:43:19.546Z,55.3
2017-07-12T12:44:19.369Z,55.1
2017-07-12T12:45:19.439Z,55.59
2017-07-12T12:46:19.297Z,55.36
2017-07-12T12:47:19.322Z,55.56
2017-07-12T12:48:19.347Z,55.94
2017-07-12T12:49:19.371Z,56.14
2017-07-12T12:50:19.435Z,56.14
2017-07-12T12:51:19.743Z,55.36
2017-07-12T12:52:19.447Z,55.85
2017-07-12T12:53:19.797Z,55.94
2017-07-12T12:54:19.907Z,56.24
2017-07-12T12:55:20.046Z,56.24
2017-07-12T12:56:19.950Z,56.43
2017-07-12T12:57:19.970Z,56.62
2017-07-12T12:58:19.599Z,56.62
2017-07-12T12:59:19.628Z,56.72
2017-07-12T13:00:19.651Z,56.81
2017-07-12T13:01:20.001Z,56.62
2017-07-12T13:02:20.023Z,56.81
2017-07-12T13:03:19.723Z,57.29
2017-07-12T13:04:20.072Z,56.52
2017-07-12T13:05:19.779Z,57.2